Time;durP1;ratioP1;P1;durP2;ratioP2;P2;SDS_P1;SDS_P2;PMS_P1;PMS_P2;Temp;Humidity;BMP_temperature;BMP_pressure;BME280_temperature;BME280_humidity;BME280_pressure;Samples;Min_cycle;Max_cycle;Signal;HPM_P1;HPM_P2
2023/07/12 00:06:51;;;;;;;8.03;4.53;;;;;;;25.56;100.00;101105.22;21124720;28;20036;-76
2023/07/12 00:17:15;;;;;;;7.82;4.32;;;;;;;25.59;100.00;101109.66;21151534;27;20102;-75
2023/07/12 00:27:38;;;;;;;9.10;4.88;;;;;;;25.54;100.00;101104.41;21225678;27;20055;-76
2023/07/12 00:38:02;;;;;;;6.78;4.20;;;;;;;25.42;100.00;101103.06;21208350;27;20039;-75
2023/07/12 00:48:26;;;;;;;8.30;4.15;;;;;;;25.30;100.00;101097.28;21194668;27;20047;-76
2023/07/12 00:58:54;;;;;;;7.07;3.88;;;;;;;25.27;100.00;101100.97;21223833;27;20119;-76
2023/07/12 01:09:18;;;;;;;6.97;4.37;;;;;;;25.21;100.00;101097.63;21218135;27;20403;-75
2023/07/12 01:19:43;;;;;;;7.32;4.18;;;;;;;25.20;100.00;101104.00;21197995;27;20051;-76
2023/07/12 01:30:09;;;;;;;7.75;4.07;;;;;;;25.13;100.00;101111.47;21211228;27;20134;-76
2023/07/12 01:40:31;;;;;;;7.68;3.90;;;;;;;25.09;100.00;101108.94;21175875;27;20663;-75
2023/07/12 01:50:57;;;;;;;8.50;4.43;;;;;;;24.96;100.00;101105.81;21169294;27;20058;-75
2023/07/12 02:01:20;;;;;;;6.72;4.03;;;;;;;24.90;100.00;101104.25;21204972;27;20055;-76
2023/07/12 02:11:44;;;;;;;6.78;4.65;;;;;;;24.55;100.00;101113.63;21198400;27;20087;-76
2023/07/12 02:22:07;;;;;;;9.27;4.55;;;;;;;24.61;100.00;101107.97;21204564;27;20051;-76
2023/07/12 02:32:31;;;;;;;8.23;4.70;;;;;;;24.61;100.00;101117.94;21184546;27;20309;-76
2023/07/12 02:42:54;;;;;;;8.88;4.68;;;;;;;24.49;100.00;101127.34;21214353;27;20051;-76
2023/07/12 02:53:19;;;;;;;7.93;4.28;;;;;;;24.50;100.00;101136.31;21203970;27;20123;-76
2023/07/12 03:03:42;;;;;;;7.50;4.95;;;;;;;24.39;100.00;101144.81;21209499;27;20154;-76
2023/07/12 03:14:07;;;;;;;8.45;4.20;;;;;;;24.40;100.00;101153.78;21207882;27;20051;-76
2023/07/12 03:24:30;;;;;;;10.02;5.10;;;;;;;24.34;100.00;101160.28;21214649;27;20108;-75
2023/07/12 03:34:55;;;;;;;8.70;5.00;;;;;;;24.46;100.00;101157.16;21216903;28;20050;-76
2023/07/12 03:45:17;;;;;;;8.23;4.20;;;;;;;24.74;100.00;101164.28;21218761;27;20073;-76
2023/07/12 03:55:44;;;;;;;6.55;4.28;;;;;;;24.98;100.00;101169.69;21232143;27;20039;-75
2023/07/12 04:06:09;;;;;;;6.85;4.40;;;;;;;25.49;100.00;101168.59;21210879;27;20142;-76
2023/07/12 04:16:34;;;;;;;11.05;4.55;;;;;;;26.06;100.00;101161.78;21228591;27;20043;-76
2023/07/12 04:26:57;;;;;;;10.32;4.55;;;;;;;26.66;100.00;101168.25;21230863;27;20043;-76
2023/07/12 04:37:21;;;;;;;9.50;3.70;;;;;;;27.28;100.00;101163.56;21220958;27;20047;-76
2023/07/12 04:47:44;;;;;;;10.00;3.95;;;;;;;27.86;100.00;101171.63;21221344;27;20415;-76
2023/07/12 04:58:08;;;;;;;7.38;4.05;;;;;;;28.38;100.00;101186.22;21201479;27;20061;-76
2023/07/12 05:08:31;;;;;;;8.25;3.00;;;;;;;29.10;100.00;101175.13;21204407;27;20046;-76
2023/07/12 05:18:55;;;;;;;5.82;3.40;;;;;;;29.78;99.33;101170.41;21187715;27;20050;-76
2023/07/12 05:29:17;;;;;;;6.55;3.03;;;;;;;30.37;89.92;101174.22;21198358;27;20499;-76
2023/07/12 05:39:41;;;;;;;5.05;3.13;;;;;;;30.93;81.20;101180.78;21151542;27;20613;-76
2023/07/12 05:50:06;;;;;;;4.60;3.08;;;;;;;31.62;76.46;101179.09;21156140;27;20059;-77
2023/07/12 06:00:32;;;;;;;5.20;2.77;;;;;;;32.22;67.82;101181.47;21080578;27;20110;-76
2023/07/12 06:10:55;;;;;;;6.63;3.30;;;;;;;32.89;60.85;101187.72;21139989;27;20095;-76
2023/07/12 06:21:19;;;;;;;5.47;3.30;;;;;;;33.61;56.06;101173.34;21169844;27;20074;-76
2023/07/12 06:31:44;;;;;;;5.88;3.33;;;;;;;33.95;53.62;101187.28;21105844;27;20577;-75
2023/07/12 06:42:09;;;;;;;5.60;2.97;;;;;;;34.54;52.49;101196.44;21125577;27;20070;-76
2023/07/12 06:52:31;;;;;;;7.07;3.45;;;;;;;34.98;50.44;101203.09;21115091;27;20055;-76
2023/07/12 07:02:56;;;;;;;7.68;3.80;;;;;;;35.15;47.05;101194.38;21164480;27;20059;-76
2023/07/12 07:13:07;;;;;;;4.60;3.00;;;;;;;35.50;46.46;101200.66;21121156;27;20522;-76
2023/07/12 07:23:31;;;;;;;8.82;3.28;;;;;;;35.70;45.23;101188.06;21207001;27;20051;-76
2023/07/12 07:33:53;;;;;;;7.00;3.17;;;;;;;35.74;45.20;101202.41;21212930;27;20047;-76
2023/07/12 07:44:17;;;;;;;9.48;3.38;;;;;;;35.55;45.09;101209.41;21203139;27;20415;-75
2023/07/12 07:54:40;;;;;;;5.35;3.40;;;;;;;35.70;45.48;101229.28;21187511;27;20391;-75
2023/07/12 08:05:06;;;;;;;5.47;3.00;;;;;;;35.82;45.01;101227.41;21182161;27;20047;-76
2023/07/12 08:15:28;;;;;;;7.45;3.50;;;;;;;35.91;44.33;101224.75;21198054;27;20044;-76
2023/07/12 08:25:54;;;;;;;6.45;3.47;;;;;;;35.97;45.07;101248.13;21217676;28;20078;-76
2023/07/12 08:36:17;;;;;;;7.50;3.53;;;;;;;36.07;45.30;101257.34;21165179;28;20032;-76
2023/07/12 08:46:47;;;;;;;6.35;3.33;;;;;;;36.27;45.80;101240.06;21205224;27;20047;-76
2023/07/12 08:57:17;;;;;;;7.38;3.25;;;;;;;36.50;44.61;101245.47;21170112;27;20495;-77
2023/07/12 09:07:49;;;;;;;7.05;3.17;;;;;;;36.99;44.32;101243.00;21203529;27;20052;-76
2023/07/12 09:18:27;;;;;;;7.03;3.00;;;;;;;37.22;42.83;101243.75;21161115;27;1465113;-76
2023/07/12 09:28:56;;;;;;;7.25;3.60;;;;;;;37.37;42.89;101249.78;21157715;27;20801;-77
2023/07/12 09:39:18;;;;;;;9.07;3.50;;;;;;;37.48;42.17;101249.72;21070133;28;20048;-75
2023/07/12 09:49:53;;;;;;;6.03;3.38;;;;;;;38.07;40.09;101247.06;21100610;28;20431;-76
2023/07/12 10:00:23;;;;;;;4.50;2.77;;;;;;;37.67;36.49;101238.81;21090674;27;20044;-77
2023/07/12 10:10:54;;;;;;;7.30;3.65;;;;;;;37.64;35.63;101235.44;21133312;27;20605;-76
2023/07/12 10:21:20;;;;;;;10.85;3.63;;;;;;;37.22;34.12;101238.25;21104318;28;20051;-76
2023/07/12 10:31:49;;;;;;;8.02;3.88;;;;;;;37.28;32.01;101236.84;21116883;28;20055;-76
2023/07/12 10:42:29;;;;;;;7.57;3.92;;;;;;;37.38;30.76;101226.75;21127898;27;20492;-76
2023/07/12 10:53:04;;;;;;;7.05;3.42;;;;;;;37.85;32.28;101222.47;21101172;28;20627;-76
2023/07/12 11:03:20;;;;;;;8.10;3.50;;;;;;;38.07;32.18;101235.19;21122471;28;20101;-76
2023/07/12 11:13:47;;;;;;;6.55;3.33;;;;;;;38.34;31.65;101223.44;21121389;28;20051;-76
2023/07/12 11:24:22;;;;;;;9.30;3.97;;;;;;;38.51;30.33;101215.34;21183226;27;20043;-76
2023/07/12 11:34:48;;;;;;;8.30;3.35;;;;;;;38.43;30.71;101204.13;21185961;27;20044;-76
2023/07/12 11:45:00;;;;;;;5.57;3.17;;;;;;;37.93;31.02;101205.22;21197432;27;20062;-75
2023/07/12 11:55:30;;;;;;;8.57;3.70;;;;;;;37.65;31.47;101198.59;21184322;27;20561;-76
2023/07/12 12:05:54;;;;;;;5.32;3.65;;;;;;;37.26;31.02;101194.78;21214253;27;20047;-76
2023/07/12 12:16:23;;;;;;;7.25;3.80;;;;;;;37.19;30.60;101177.06;21196709;27;20046;-75
2023/07/12 12:26:48;;;;;;;7.40;3.90;;;;;;;37.35;30.17;101160.91;21195974;27;20051;-76
2023/07/12 12:37:17;;;;;;;6.87;3.63;;;;;;;37.71;28.75;101154.78;21201892;27;20108;-76
2023/07/12 12:47:40;;;;;;;7.03;3.72;;;;;;;37.86;29.41;101135.97;21182513;27;20088;-75
2023/07/12 12:57:44;;;;;;;5.70;3.30;;;;;;;38.05;28.15;101129.63;21171893;27;20360;-76
2023/07/12 13:08:17;;;;;;;6.75;3.35;;;;;;;37.97;27.95;101135.81;21180039;27;20047;-76
2023/07/12 13:18:41;;;;;;;8.32;3.85;;;;;;;37.78;26.73;101122.88;21174679;27;20043;-76
2023/07/12 13:29:16;;;;;;;6.03;3.70;;;;;;;37.58;26.85;101123.84;21196688;27;20052;-75
2023/07/12 13:39:40;;;;;;;9.23;3.70;;;;;;;37.37;26.80;101132.19;21222467;27;20605;-75
2023/07/12 13:50:05;;;;;;;8.68;4.00;;;;;;;37.19;27.38;101131.09;21218625;27;20050;-75
2023/07/12 14:00:29;;;;;;;7.43;3.87;;;;;;;37.27;27.60;101114.75;21222476;27;20459;-76
2023/07/12 14:10:51;;;;;;;8.73;3.83;;;;;;;37.14;27.21;101118.75;21210936;27;20506;-76
2023/07/12 14:21:17;;;;;;;7.55;3.67;;;;;;;36.96;28.16;101122.09;21215857;27;20061;-75
2023/07/12 14:31:42;;;;;;;8.57;3.85;;;;;;;36.96;28.95;101132.25;21216812;27;20051;-76
2023/07/12 14:42:06;;;;;;;8.43;3.80;;;;;;;37.12;28.08;101113.38;21219806;27;20055;-76
2023/07/12 14:52:20;;;;;;;6.28;3.50;;;;;;;37.02;27.83;101091.25;21224565;27;20522;-76
2023/07/12 15:02:47;;;;;;;5.97;3.47;;;;;;;36.85;29.18;101091.91;21209360;27;20047;-76
2023/07/12 15:13:10;;;;;;;9.60;4.00;;;;;;;36.14;31.76;101087.19;21215781;28;20047;-76
2023/07/12 15:23:34;;;;;;;7.93;3.67;;;;;;;35.34;35.68;101086.66;21216206;28;20050;-75
2023/07/12 15:33:52;;;;;;;8.55;3.80;;;;;;;34.69;37.27;101084.63;21227482;27;20043;-75
2023/07/12 15:44:17;;;;;;;6.68;4.30;;;;;;;32.58;42.33;101075.97;21207114;27;20048;-77
2023/07/12 15:54:26;;;;;;;6.60;4.15;;;;;;;31.04;51.36;101096.44;21213958;27;20050;-76
2023/07/12 16:04:50;;;;;;;11.40;4.88;;;;;;;31.40;47.17;101099.53;21190396;27;20130;-76
2023/07/12 16:15:18;;;;;;;9.77;4.63;;;;;;;31.32;45.94;101095.53;21161654;27;20039;-74
2023/07/12 16:25:43;;;;;;;9.35;6.35;;;;;;;31.24;44.92;101117.91;21189558;27;20044;-74
2023/07/12 16:36:07;;;;;;;7.78;4.45;;;;;;;31.08;44.65;101114.38;21188394;27;20110;-76
2023/07/12 16:46:32;;;;;;;7.03;4.55;;;;;;;30.86;46.29;101118.44;21200314;27;20057;-75
2023/07/12 16:56:35;;;;;;;9.23;4.55;;;;;;;30.66;47.72;101112.47;21213198;27;20135;-75
2023/07/12 17:06:59;;;;;;;10.30;4.97;;;;;;;30.44;51.51;101112.91;21168062;27;20035;-75
2023/07/12 17:17:22;;;;;;;11.18;4.72;;;;;;;30.21;53.42;101114.31;21212998;27;20051;-75
2023/07/12 17:27:47;;;;;;;8.30;4.90;;;;;;;29.95;57.33;101124.03;21214415;27;20402;-74
2023/07/12 17:38:12;;;;;;;8.15;5.40;;;;;;;29.70;54.78;101134.59;21188995;27;20055;-76
2023/07/12 17:48:37;;;;;;;9.27;5.35;;;;;;;29.44;57.49;101136.09;21174187;27;20050;-75
2023/07/12 17:58:59;;;;;;;9.38;5.07;;;;;;;29.27;61.19;101133.41;21216973;27;20074;-74
2023/07/12 18:09:23;;;;;;;7.03;5.15;;;;;;;29.17;58.96;101160.22;21192990;27;20046;-74
2023/07/12 18:19:25;;;;;;;10.15;4.97;;;;;;;29.02;58.00;101173.78;21216908;27;20439;-77
2023/07/12 18:29:50;;;;;;;7.85;4.88;;;;;;;28.89;59.43;101166.28;21174162;27;20104;-75
2023/07/12 18:40:13;;;;;;;13.48;5.40;;;;;;;28.59;62.28;101161.59;21227347;27;20042;-75
2023/07/12 18:50:39;;;;;;;10.32;5.05;;;;;;;28.29;70.78;101180.38;21234900;27;20071;-74
2023/07/12 19:01:02;;;;;;;14.20;6.93;;;;;;;28.16;73.39;101185.53;21213393;27;20062;-76
2023/07/12 19:11:32;;;;;;;12.45;7.68;;;;;;;27.66;75.53;101185.31;21176201;27;20086;-75
2023/07/12 19:21:55;;;;;;;11.88;6.93;;;;;;;27.71;77.79;101189.53;21212811;27;20043;-75
2023/07/12 19:32:23;;;;;;;8.77;5.78;;;;;;;27.57;79.67;101186.63;21180647;27;20051;-75
2023/07/12 19:42:45;;;;;;;9.30;6.03;;;;;;;27.51;80.12;101189.59;21175883;27;20054;-74
2023/07/12 19:53:23;;;;;;;12.73;6.80;;;;;;;27.29;81.92;101192.47;21204990;27;20539;-74
2023/07/12 20:03:47;;;;;;;12.60;6.53;;;;;;;27.08;88.88;101195.28;21186434;27;20080;-74
2023/07/12 20:14:12;;;;;;;26.70;18.23;;;;;;;26.80;89.97;101182.94;21188544;27;20057;-75
2023/07/12 20:24:34;;;;;;;14.57;7.43;;;;;;;26.79;87.81;101177.56;21212668;27;20046;-74
2023/07/12 20:34:58;;;;;;;10.23;7.40;;;;;;;26.51;89.92;101170.69;21226795;27;20044;-75
2023/07/12 20:45:16;;;;;;;11.57;6.57;;;;;;;26.60;89.28;101172.09;21222956;27;20043;-74
2023/07/12 20:55:40;;;;;;;11.02;7.57;;;;;;;26.38;92.60;101163.19;21205245;27;20075;-74
2023/07/12 21:06:05;;;;;;;9.00;6.22;;;;;;;26.31;93.62;101167.97;21197300;27;20039;-74
2023/07/12 21:16:29;;;;;;;13.05;6.40;;;;;;;26.19;97.91;101165.72;21180858;27;20047;-74
2023/07/12 21:26:48;;;;;;;14.93;6.13;;;;;;;26.18;97.05;101175.72;21206647;27;20122;-74
2023/07/12 21:37:12;;;;;;;7.93;6.00;;;;;;;25.93;98.29;101163.28;21236661;27;20051;-74
2023/07/12 21:47:20;;;;;;;10.77;6.22;;;;;;;25.92;98.87;101156.09;21189405;27;20400;-74
2023/07/12 21:57:24;;;;;;;9.27;6.45;;;;;;;25.95;99.56;101153.25;21232259;27;20103;-74
2023/07/12 22:07:53;;;;;;;9.88;5.75;;;;;;;25.99;97.87;101154.91;21220096;27;20554;-74
2023/07/12 22:17:58;;;;;;;8.75;6.47;;;;;;;25.91;98.44;101135.38;21226747;27;20095;-73
2023/07/12 22:28:21;;;;;;;8.57;5.53;;;;;;;26.00;92.67;101126.88;21194687;27;20503;-73
2023/07/12 22:38:49;;;;;;;8.23;6.10;;;;;;;26.02;90.70;101114.16;21185088;27;20136;-73
2023/07/12 22:49:11;;;;;;;9.02;5.45;;;;;;;25.89;91.54;101108.38;21202411;27;20915;-73
2023/07/12 22:59:36;;;;;;;7.72;5.85;;;;;;;25.88;86.29;101100.31;21213049;27;20050;-74
2023/07/12 23:09:58;;;;;;;9.55;6.20;;;;;;;25.80;87.56;101093.41;21204646;27;20134;-74
2023/07/12 23:20:24;;;;;;;10.90;6.63;;;;;;;25.80;89.31;101085.28;21188324;28;20510;-73
2023/07/12 23:30:47;;;;;;;8.30;5.90;;;;;;;25.65;92.56;101085.06;21208787;27;20045;-73
2023/07/12 23:41:12;;;;;;;9.90;5.70;;;;;;;25.65;92.13;101068.84;21179275;27;20057;-74
2023/07/12 23:51:35;;;;;;;8.73;5.63;;;;;;;25.68;85.06;101055.19;21170279;28;20044;-73
